Time;durP1;ratioP1;P1;durP2;ratioP2;P2;SDS_P1;SDS_P2;PMS_P1;PMS_P2;Temp;Humidity;BMP_temperature;BMP_pressure;BME280_temperature;BME280_humidity;BME280_pressure;Samples;Min_cycle;Max_cycle;Signal;HPM_P1;HPM_P2
2022/06/05 00:00:17;;;;;;;10.55;9.75;;;;;;;;;;5008090;28;20088;-65
2022/06/05 00:02:51;;;;;;;10.60;9.70;;;;;;;;;;5011207;28;20026;-66
2022/06/05 00:05:22;;;;;;;11.07;10.00;;;;;;;;;;5013717;28;20034;-66
2022/06/05 00:07:48;;;;;;;11.02;10.02;;;;;;;;;;5007963;28;20334;-66
2022/06/05 00:10:22;;;;;;;11.55;10.32;;;;;;;;;;5015436;28;20694;-66
2022/06/05 00:13:10;;;;;;;10.60;9.55;;;;;;;;;;5011874;28;20045;-66
2022/06/05 00:15:36;;;;;;;10.85;9.88;;;;;;;;;;5016387;28;20496;-66
2022/06/05 00:18:03;;;;;;;10.90;9.90;;;;;;;;;;5016692;28;20029;-66
2022/06/05 00:20:28;;;;;;;10.88;9.93;;;;;;;;;;5015177;28;20574;-66
2022/06/05 00:22:54;;;;;;;10.73;9.82;;;;;;;;;;5014618;28;20034;-66
2022/06/05 00:25:20;;;;;;;11.55;10.45;;;;;;;;;;5011203;28;20042;-66
2022/06/05 00:27:55;;;;;;;10.88;9.88;;;;;;;;;;5015789;28;20120;-66
2022/06/05 00:30:52;;;;;;;11.02;10.13;;;;;;;;;;5014594;28;20125;-66
2022/06/05 00:33:28;;;;;;;10.82;9.88;;;;;;;;;;5014582;28;20112;-66
2022/06/05 00:36:16;;;;;;;11.40;10.50;;;;;;;;;;5010223;28;20048;-66
2022/06/05 00:39:01;;;;;;;11.00;10.00;;;;;;;;;;5015922;28;20460;-66
2022/06/05 00:41:36;;;;;;;10.77;9.90;;;;;;;;;;5019834;28;20033;-66
2022/06/05 00:44:04;;;;;;;10.63;9.82;;;;;;;;;;5019817;28;20734;-66
2022/06/05 00:46:32;;;;;;;12.00;10.77;;;;;;;;;;5021748;28;20091;-66
2022/06/05 00:48:58;;;;;;;11.52;10.45;;;;;;;;;;5013553;28;20037;-66
2022/06/05 00:51:24;;;;;;;12.20;10.82;;;;;;;;;;5018652;28;20042;-66
2022/06/05 00:53:50;;;;;;;11.25;10.18;;;;;;;;;;5018384;28;20041;-66
2022/06/05 00:56:17;;;;;;;12.25;11.05;;;;;;;;;;5017186;28;20044;-67
2022/06/05 00:58:43;;;;;;;12.23;10.88;;;;;;;;;;5013888;28;20025;-66
2022/06/05 01:01:09;;;;;;;11.43;10.52;;;;;;;;;;5018263;28;20061;-66
2022/06/05 01:03:35;;;;;;;11.10;10.20;;;;;;;;;;5015508;28;20115;-66
2022/06/05 01:06:01;;;;;;;11.10;10.15;;;;;;;;;;5015770;28;20558;-66
2022/06/05 01:08:27;;;;;;;11.40;10.27;;;;;;;;;;5017677;28;20062;-66
2022/06/05 01:11:13;;;;;;;12.63;11.30;;;;;;;;;;5011525;28;20038;-66
2022/06/05 01:14:07;;;;;;;11.35;10.35;;;;;;;;;;5006817;28;20033;-66
2022/06/05 01:16:44;;;;;;;11.65;10.70;;;;;;;;;;5015236;28;20041;-66
2022/06/05 01:19:16;;;;;;;12.02;11.02;;;;;;;;;;5013460;28;20030;-66
2022/06/05 01:21:47;;;;;;;11.82;10.80;;;;;;;;;;5016420;28;20045;-66
2022/06/05 01:24:46;;;;;;;11.77;10.60;;;;;;;;;;5011941;28;20482;-66
2022/06/05 01:27:17;;;;;;;12.25;11.13;;;;;;;;;;5016271;28;20615;-66
2022/06/05 01:29:51;;;;;;;12.25;11.05;;;;;;;;;;5014376;28;20108;-65
2022/06/05 01:32:25;;;;;;;12.15;11.15;;;;;;;;;;5019981;28;20034;-66
2022/06/05 01:34:57;;;;;;;11.48;10.45;;;;;;;;;;5012389;28;20068;-67
2022/06/05 01:37:37;;;;;;;12.27;11.18;;;;;;;;;;5014455;28;20041;-66
2022/06/05 01:40:12;;;;;;;13.00;11.80;;;;;;;;;;5007251;28;20041;-66
2022/06/05 01:42:41;;;;;;;13.25;11.65;;;;;;;;;;5015473;28;20435;-66
2022/06/05 01:45:19;;;;;;;13.05;11.95;;;;;;;;;;5014497;28;20073;-66
2022/06/05 01:47:50;;;;;;;12.80;11.60;;;;;;;;;;5012478;28;20026;-66
2022/06/05 01:50:22;;;;;;;12.73;11.63;;;;;;;;;;5016226;28;20041;-66
2022/06/05 01:52:56;;;;;;;12.68;11.50;;;;;;;;;;5013757;28;20028;-66
2022/06/05 01:55:34;;;;;;;12.27;11.27;;;;;;;;;;5015800;28;20061;-66
2022/06/05 01:58:05;;;;;;;13.33;11.67;;;;;;;;;;5015815;28;20133;-66
2022/06/05 02:00:31;;;;;;;12.60;11.43;;;;;;;;;;5015554;28;20041;-66
2022/06/05 02:03:03;;;;;;;12.55;11.45;;;;;;;;;;5015492;28;20029;-66
2022/06/05 02:06:00;;;;;;;11.88;10.85;;;;;;;;;;5017948;28;20042;-66
2022/06/05 02:08:33;;;;;;;11.85;10.85;;;;;;;;;;5015642;28;20037;-66
2022/06/05 02:11:11;;;;;;;12.23;11.13;;;;;;;;;;5010106;28;20068;-66
2022/06/05 02:13:36;;;;;;;12.73;11.00;;;;;;;;;;5016701;28;20579;-66
2022/06/05 02:16:02;;;;;;;12.05;11.05;;;;;;;;;;5017096;28;20037;-66
2022/06/05 02:18:28;;;;;;;12.43;11.38;;;;;;;;;;5014993;28;20069;-66
2022/06/05 02:20:54;;;;;;;12.00;11.05;;;;;;;;;;5009189;28;20025;-66
2022/06/05 02:23:24;;;;;;;13.38;11.30;;;;;;;;;;5014492;28;20046;-66
2022/06/05 02:25:50;;;;;;;13.10;11.85;;;;;;;;;;5010402;28;20065;-66
2022/06/05 02:28:18;;;;;;;13.52;12.23;;;;;;;;;;5001046;28;20072;-66
2022/06/05 02:30:58;;;;;;;13.27;11.80;;;;;;;;;;5005179;28;20034;-66
2022/06/05 02:33:52;;;;;;;12.05;10.98;;;;;;;;;;5005391;28;20038;-67
2022/06/05 02:36:33;;;;;;;11.98;10.98;;;;;;;;;;5003321;28;20068;-66
2022/06/05 02:39:57;;;;;;;12.68;10.68;;;;;;;;;;5004494;28;20052;-66
2022/06/05 02:42:30;;;;;;;13.10;11.77;;;;;;;;;;4945767;29;20046;-66
2022/06/05 02:45:07;;;;;;;12.25;11.15;;;;;;;;;;4941051;29;20263;-66
2022/06/05 02:48:21;;;;;;;12.15;10.98;;;;;;;;;;4945810;29;20043;-66
2022/06/05 02:51:13;;;;;;;12.85;11.55;;;;;;;;;;4905033;29;20052;-66
2022/06/05 02:53:51;;;;;;;12.82;11.85;;;;;;;;;;4944624;29;20093;-66
2022/06/05 02:56:18;;;;;;;13.55;12.20;;;;;;;;;;4945528;29;20051;-66
2022/06/05 02:58:47;;;;;;;12.60;11.45;;;;;;;;;;4945609;29;20526;-66
2022/06/05 03:03:57;;;;;;;12.43;11.32;;;;;;;;;;4942575;29;20043;-66
2022/06/05 03:06:22;;;;;;;11.95;10.80;;;;;;;;;;4945412;29;20047;-66
2022/06/05 03:08:48;;;;;;;12.00;11.00;;;;;;;;;;4945094;29;20035;-66
2022/06/05 03:11:13;;;;;;;11.65;10.75;;;;;;;;;;4943622;29;20055;-66
2022/06/05 03:13:39;;;;;;;12.88;11.68;;;;;;;;;;4945132;29;20089;-66
2022/06/05 03:16:07;;;;;;;12.07;10.98;;;;;;;;;;4977500;28;20081;-68
2022/06/05 03:18:33;;;;;;;12.73;11.50;;;;;;;;;;5009987;28;20045;-66
2022/06/05 03:20:58;;;;;;;12.77;11.60;;;;;;;;;;5006846;28;20069;-66
2022/06/05 03:23:25;;;;;;;13.35;12.15;;;;;;;;;;5015434;28;20100;-66
2022/06/05 03:25:51;;;;;;;13.60;12.27;;;;;;;;;;5008234;28;20034;-66
2022/06/05 03:28:17;;;;;;;12.35;11.25;;;;;;;;;;5016278;28;20056;-66
2022/06/05 03:30:43;;;;;;;12.55;11.38;;;;;;;;;;5003906;28;20096;-66
2022/06/05 03:33:10;;;;;;;12.98;11.77;;;;;;;;;;5005741;28;20037;-66
2022/06/05 03:35:42;;;;;;;12.63;11.63;;;;;;;;;;5005531;28;20595;-66
2022/06/05 03:38:09;;;;;;;12.15;11.05;;;;;;;;;;5008697;28;20025;-66
2022/06/05 03:40:39;;;;;;;12.55;11.45;;;;;;;;;;5012546;28;20030;-66
2022/06/05 03:43:04;;;;;;;12.75;11.57;;;;;;;;;;5010255;28;20033;-66
2022/06/05 03:45:30;;;;;;;12.77;11.48;;;;;;;;;;5004884;28;20042;-66
2022/06/05 03:47:56;;;;;;;12.05;10.85;;;;;;;;;;5000175;28;20026;-66
2022/06/05 03:50:22;;;;;;;13.48;11.10;;;;;;;;;;5015606;28;20037;-66
2022/06/05 03:52:47;;;;;;;11.27;10.38;;;;;;;;;;5014591;28;20030;-66
2022/06/05 03:55:17;;;;;;;13.07;10.35;;;;;;;;;;5009470;28;20036;-66
2022/06/05 03:57:43;;;;;;;12.27;11.18;;;;;;;;;;5008273;28;20397;-67
2022/06/05 04:00:10;;;;;;;11.75;10.85;;;;;;;;;;5017931;28;20048;-66
2022/06/05 04:02:40;;;;;;;10.98;10.02;;;;;;;;;;5007382;28;20038;-66
2022/06/05 04:05:07;;;;;;;10.85;10.05;;;;;;;;;;5012530;28;20044;-66
2022/06/05 04:07:33;;;;;;;12.10;11.00;;;;;;;;;;5004126;28;20555;-66
2022/06/05 04:09:58;;;;;;;12.10;11.00;;;;;;;;;;5013701;28;20038;-65
2022/06/05 04:12:24;;;;;;;12.00;11.10;;;;;;;;;;5013326;28;20653;-66
2022/06/05 04:14:50;;;;;;;12.35;11.35;;;;;;;;;;5003778;28;20034;-68
2022/06/05 04:17:15;;;;;;;12.05;10.88;;;;;;;;;;5001844;28;20025;-66
2022/06/05 04:19:41;;;;;;;11.77;10.77;;;;;;;;;;5009431;28;20041;-66
2022/06/05 04:22:07;;;;;;;12.55;11.55;;;;;;;;;;5012992;28;20128;-66
2022/06/05 04:24:32;;;;;;;12.13;11.13;;;;;;;;;;5016478;28;20559;-66
2022/06/05 04:26:58;;;;;;;12.63;11.63;;;;;;;;;;5022356;28;20037;-66
2022/06/05 04:29:24;;;;;;;13.13;11.93;;;;;;;;;;5006943;28;20052;-66
2022/06/05 04:31:50;;;;;;;13.57;12.48;;;;;;;;;;5011908;28;20022;-66
2022/06/05 04:34:22;;;;;;;14.00;12.60;;;;;;;;;;5017974;28;20136;-66
2022/06/05 04:36:48;;;;;;;13.98;12.60;;;;;;;;;;5012562;28;20029;-66
2022/06/05 04:39:14;;;;;;;13.52;12.25;;;;;;;;;;5014521;28;20118;-66
2022/06/05 04:41:41;;;;;;;13.95;12.70;;;;;;;;;;5017518;28;20048;-66
2022/06/05 04:44:08;;;;;;;13.70;12.60;;;;;;;;;;5013370;28;20049;-66
2022/06/05 04:46:35;;;;;;;14.60;13.32;;;;;;;;;;5020768;28;20037;-66
2022/06/05 04:49:01;;;;;;;14.85;13.15;;;;;;;;;;5012669;28;20044;-66
2022/06/05 04:51:27;;;;;;;13.98;12.77;;;;;;;;;;5018118;28;20052;-66
2022/06/05 04:53:54;;;;;;;15.00;12.88;;;;;;;;;;5014654;28;20124;-66
2022/06/05 04:56:23;;;;;;;14.50;13.23;;;;;;;;;;5022200;28;20045;-66
2022/06/05 04:58:49;;;;;;;14.80;13.50;;;;;;;;;;5018423;28;20575;-66
2022/06/05 05:01:19;;;;;;;13.93;12.73;;;;;;;;;;5013974;28;20113;-66
2022/06/05 05:03:46;;;;;;;14.52;13.23;;;;;;;;;;5018067;28;20033;-65
2022/06/05 05:06:12;;;;;;;15.65;14.30;;;;;;;;;;5022459;28;20037;-66
2022/06/05 05:08:38;;;;;;;16.13;14.38;;;;;;;;;;5014732;28;20057;-65
2022/06/05 05:11:04;;;;;;;15.68;14.10;;;;;;;;;;5015961;28;20531;-67
2022/06/05 05:13:30;;;;;;;16.70;15.20;;;;;;;;;;5017096;28;20121;-66
2022/06/05 05:15:56;;;;;;;16.85;15.20;;;;;;;;;;5011944;28;20037;-67
2022/06/05 05:18:23;;;;;;;18.52;16.63;;;;;;;;;;5005700;28;20030;-68
2022/06/05 05:20:49;;;;;;;19.83;17.80;;;;;;;;;;5012586;28;20108;-67
2022/06/05 05:23:16;;;;;;;20.92;19.13;;;;;;;;;;5008059;28;20652;-68
2022/06/05 05:25:41;;;;;;;21.77;19.75;;;;;;;;;;5009096;28;20416;-67
2022/06/05 05:28:07;;;;;;;25.23;21.90;;;;;;;;;;5012763;28;20026;-68
2022/06/05 05:30:33;;;;;;;22.23;19.00;;;;;;;;;;5008643;28;20075;-68
2022/06/05 05:32:59;;;;;;;23.17;20.88;;;;;;;;;;5010027;28;20037;-68
2022/06/05 05:35:25;;;;;;;29.70;24.42;;;;;;;;;;5010519;28;20040;-68
2022/06/05 05:37:50;;;;;;;30.52;27.30;;;;;;;;;;5009276;28;20037;-68
2022/06/05 05:43:01;;;;;;;35.55;31.70;;;;;;;;;;5009565;28;20040;-69
2022/06/05 05:45:27;;;;;;;33.13;29.65;;;;;;;;;;5012572;28;20037;-69
2022/06/05 05:47:53;;;;;;;33.38;29.88;;;;;;;;;;5012633;28;20432;-70
2022/06/05 05:50:19;;;;;;;33.53;27.75;;;;;;;;;;5007333;28;20048;-70
2022/06/05 05:52:45;;;;;;;34.95;29.00;;;;;;;;;;5010004;28;20116;-71
2022/06/05 05:55:19;;;;;;;33.70;30.10;;;;;;;;;;5012025;28;20095;-71
2022/06/05 05:57:46;;;;;;;35.78;28.70;;;;;;;;;;5010120;28;20026;-70
2022/06/05 06:00:14;;;;;;;36.47;29.70;;;;;;;;;;5008548;28;20030;-71
2022/06/05 06:02:42;;;;;;;42.90;31.45;;;;;;;;;;5009593;28;20038;-70
2022/06/05 06:05:11;;;;;;;45.22;36.53;;;;;;;;;;5011929;28;20040;-70
2022/06/05 06:07:37;;;;;;;42.50;32.90;;;;;;;;;;5011399;28;20033;-70
2022/06/05 06:10:04;;;;;;;37.00;30.65;;;;;;;;;;5006675;28;20508;-69
2022/06/05 06:12:29;;;;;;;42.60;32.72;;;;;;;;;;5012238;28;20489;-69
2022/06/05 06:14:55;;;;;;;41.58;33.20;;;;;;;;;;5011091;28;20116;-69
2022/06/05 06:17:21;;;;;;;34.75;27.75;;;;;;;;;;5010866;28;20109;-68
2022/06/05 06:19:46;;;;;;;27.25;24.17;;;;;;;;;;5008038;28;20033;-69
2022/06/05 06:22:12;;;;;;;27.85;24.55;;;;;;;;;;5011481;28;20042;-68
2022/06/05 06:24:38;;;;;;;22.35;18.75;;;;;;;;;;5006332;28;20412;-69
2022/06/05 06:27:03;;;;;;;23.58;20.92;;;;;;;;;;5004927;28;20388;-69
2022/06/05 06:29:29;;;;;;;58.00;23.48;;;;;;;;;;5006602;28;20069;-69
2022/06/05 06:31:55;;;;;;;149.77;28.73;;;;;;;;;;5006450;28;20145;-69
2022/06/05 06:34:20;;;;;;;165.20;26.75;;;;;;;;;;5009655;28;20055;-68
2022/06/05 06:36:46;;;;;;;28.27;22.40;;;;;;;;;;5014937;28;20039;-69
2022/06/05 06:39:12;;;;;;;24.45;21.88;;;;;;;;;;5015119;28;20037;-69
2022/06/05 06:41:38;;;;;;;23.05;20.70;;;;;;;;;;5014109;28;20029;-69
2022/06/05 06:44:04;;;;;;;23.55;21.33;;;;;;;;;;5019643;28;20112;-69
2022/06/05 06:46:31;;;;;;;19.88;17.95;;;;;;;;;;5013696;28;20045;-69
2022/06/05 06:48:57;;;;;;;21.83;19.55;;;;;;;;;;5015200;28;20045;-68
2022/06/05 06:51:22;;;;;;;22.05;19.58;;;;;;;;;;5015085;28;20041;-70
2022/06/05 06:53:48;;;;;;;20.98;19.20;;;;;;;;;;5014690;28;20033;-70
2022/06/05 06:56:20;;;;;;;20.95;19.05;;;;;;;;;;5016220;28;20407;-69
2022/06/05 06:58:46;;;;;;;17.85;16.02;;;;;;;;;;5009276;28;20395;-69
2022/06/05 07:01:13;;;;;;;15.13;13.82;;;;;;;;;;5013266;28;20033;-69
2022/06/05 07:03:38;;;;;;;14.15;13.10;;;;;;;;;;5012276;28;20033;-70
2022/06/05 07:06:07;;;;;;;12.82;11.85;;;;;;;;;;5012878;28;20413;-70
2022/06/05 07:08:32;;;;;;;12.20;11.40;;;;;;;;;;5016150;28;20112;-70
2022/06/05 07:10:58;;;;;;;13.57;12.02;;;;;;;;;;5016059;28;20597;-70
2022/06/05 07:13:24;;;;;;;13.13;12.07;;;;;;;;;;5014149;28;20095;-70
2022/06/05 07:15:50;;;;;;;14.05;12.60;;;;;;;;;;5010536;28;20465;-69
2022/06/05 07:18:17;;;;;;;13.18;12.18;;;;;;;;;;5015942;28;20543;-69
2022/06/05 07:20:44;;;;;;;13.80;12.80;;;;;;;;;;5015132;28;20095;-70
2022/06/05 07:23:11;;;;;;;13.02;11.57;;;;;;;;;;5006226;28;20029;-69
2022/06/05 07:25:37;;;;;;;13.98;12.88;;;;;;;;;;5008976;28;20120;-69
2022/06/05 07:28:04;;;;;;;16.40;13.20;;;;;;;;;;5010419;28;20037;-70
2022/06/05 07:30:31;;;;;;;13.82;12.60;;;;;;;;;;5006362;28;20038;-69
2022/06/05 07:32:57;;;;;;;11.77;10.95;;;;;;;;;;5009704;28;20026;-69
2022/06/05 07:35:22;;;;;;;12.20;11.35;;;;;;;;;;5016492;28;20040;-69
2022/06/05 07:37:48;;;;;;;11.88;10.90;;;;;;;;;;5006974;28;20165;-69
2022/06/05 07:40:15;;;;;;;10.90;10.20;;;;;;;;;;5019954;28;20037;-69
2022/06/05 07:42:42;;;;;;;9.95;9.30;;;;;;;;;;5011571;28;20026;-69
2022/06/05 07:45:11;;;;;;;10.68;9.80;;;;;;;;;;5010779;28;20084;-70
2022/06/05 07:47:37;;;;;;;12.23;11.20;;;;;;;;;;5011205;28;20041;-70
2022/06/05 07:50:03;;;;;;;12.27;11.32;;;;;;;;;;5005944;28;20044;-69
2022/06/05 07:55:13;;;;;;;11.32;10.35;;;;;;;;;;5018092;28;20065;-70
2022/06/05 07:57:39;;;;;;;11.80;11.00;;;;;;;;;;5014893;28;20061;-69
2022/06/05 08:00:07;;;;;;;11.40;10.60;;;;;;;;;;5013683;28;20657;-69
2022/06/05 08:02:34;;;;;;;11.18;10.13;;;;;;;;;;5017444;28;20176;-70
2022/06/05 08:05:02;;;;;;;12.88;11.75;;;;;;;;;;5005648;28;20041;-69
2022/06/05 08:07:31;;;;;;;12.70;11.60;;;;;;;;;;5010353;28;20041;-70
2022/06/05 08:09:58;;;;;;;13.65;12.45;;;;;;;;;;5014827;28;20578;-69
2022/06/05 08:12:27;;;;;;;12.55;11.52;;;;;;;;;;5011066;28;20508;-70
2022/06/05 08:14:53;;;;;;;12.73;11.63;;;;;;;;;;5013671;28;20049;-69
2022/06/05 08:17:25;;;;;;;12.23;11.13;;;;;;;;;;5013574;28;20030;-69
2022/06/05 08:19:51;;;;;;;11.95;11.00;;;;;;;;;;5013206;28;20045;-69
2022/06/05 08:22:21;;;;;;;10.85;10.18;;;;;;;;;;5014047;28;20034;-69
2022/06/05 08:24:48;;;;;;;11.27;10.48;;;;;;;;;;5015067;28;20164;-69
2022/06/05 08:27:17;;;;;;;11.65;10.73;;;;;;;;;;5015688;28;20084;-67
2022/06/05 08:29:43;;;;;;;;;;;;;;;;;;5009546;28;20059;-66
2022/06/05 08:32:09;;;;;;;10.30;9.60;;;;;;;;;;5014413;28;19982;-68
2022/06/05 08:34:35;;;;;;;10.57;9.88;;;;;;;;;;5012706;28;20026;-67
2022/06/05 08:43:09;;;;;;;10.18;9.50;;;;;;;;;;5017065;28;20037;-68
2022/06/05 08:45:50;;;;;;;9.98;9.13;;;;;;;;;;5010834;28;20040;-67
2022/06/05 08:48:32;;;;;;;10.50;9.70;;;;;;;;;;5013010;28;20116;-68
2022/06/05 08:51:11;;;;;;;10.23;9.45;;;;;;;;;;5019111;28;20378;-67
2022/06/05 08:53:48;;;;;;;10.77;9.98;;;;;;;;;;5019568;28;20041;-67
2022/06/05 08:56:23;;;;;;;10.98;10.10;;;;;;;;;;5005981;28;20044;-66
2022/06/05 08:58:55;;;;;;;9.18;8.65;;;;;;;;;;5004668;28;20077;-66
2022/06/05 09:01:36;;;;;;;9.75;9.07;;;;;;;;;;5006425;28;20140;-68
2022/06/05 09:04:18;;;;;;;9.68;8.88;;;;;;;;;;5002450;28;20040;-68
2022/06/05 09:06:58;;;;;;;10.82;8.63;;;;;;;;;;5011971;28;20037;-67
2022/06/05 09:09:38;;;;;;;9.13;8.35;;;;;;;;;;5013067;28;20148;-67
2022/06/05 09:12:13;;;;;;;9.18;8.60;;;;;;;;;;5014778;28;20029;-67
2022/06/05 09:14:56;;;;;;;8.50;7.80;;;;;;;;;;5010796;28;20037;-67
2022/06/05 09:17:22;;;;;;;8.02;7.50;;;;;;;;;;5015116;28;20424;-68
2022/06/05 09:19:50;;;;;;;8.63;7.82;;;;;;;;;;5013383;28;20033;-66
2022/06/05 09:22:42;;;;;;;9.32;8.70;;;;;;;;;;5009743;28;20033;-67
2022/06/05 09:25:31;;;;;;;9.75;8.95;;;;;;;;;;5005164;28;20104;-66
2022/06/05 09:28:29;;;;;;;8.65;8.10;;;;;;;;;;5015078;28;20033;-67
2022/06/05 09:31:10;;;;;;;10.07;9.07;;;;;;;;;;5003738;28;20582;-67
2022/06/05 09:33:39;;;;;;;9.20;8.60;;;;;;;;;;5006199;28;20118;-66
2022/06/05 09:36:09;;;;;;;8.35;7.80;;;;;;;;;;5015781;28;20370;-65
2022/06/05 09:38:43;;;;;;;8.10;7.60;;;;;;;;;;5015236;28;20030;-67
2022/06/05 09:41:37;;;;;;;8.88;8.18;;;;;;;;;;5019370;28;20485;-67
2022/06/05 09:44:21;;;;;;;9.05;8.32;;;;;;;;;;5016366;28;20500;-66
2022/06/05 09:47:01;;;;;;;8.35;7.78;;;;;;;;;;5015329;28;20032;-67
2022/06/05 09:49:50;;;;;;;8.75;8.05;;;;;;;;;;5017510;28;20042;-67
2022/06/05 09:52:20;;;;;;;8.05;7.45;;;;;;;;;;5018848;28;20037;-66
2022/06/05 09:55:09;;;;;;;8.60;8.07;;;;;;;;;;5009358;28;20034;-66
2022/06/05 10:00:47;;;;;;;7.35;6.75;;;;;;;;;;5015683;28;20045;-66
2022/06/05 10:03:16;;;;;;;8.10;7.60;;;;;;;;;;5015448;28;20036;-66
2022/06/05 10:06:03;;;;;;;8.00;7.30;;;;;;;;;;5012549;28;20083;-65
2022/06/05 10:08:41;;;;;;;7.65;7.10;;;;;;;;;;5014137;28;20021;-66
2022/06/05 10:11:23;;;;;;;8.18;7.50;;;;;;;;;;5011348;28;20042;-67
2022/06/05 10:14:18;;;;;;;8.27;7.65;;;;;;;;;;5015104;28;20129;-66
2022/06/05 10:16:50;;;;;;;8.02;7.53;;;;;;;;;;5015474;28;20029;-67
2022/06/05 10:19:33;;;;;;;8.00;7.50;;;;;;;;;;5017350;28;20037;-67
2022/06/05 10:22:12;;;;;;;8.20;7.60;;;;;;;;;;5010235;28;20603;-66
2022/06/05 10:24:58;;;;;;;7.90;7.25;;;;;;;;;;5012052;28;20666;-67
2022/06/05 10:27:24;;;;;;;7.45;6.85;;;;;;;;;;5011966;28;20079;-66
2022/06/05 10:29:55;;;;;;;7.47;6.97;;;;;;;;;;5005043;28;20069;-66
2022/06/05 10:32:35;;;;;;;8.05;7.38;;;;;;;;;;5007337;28;20053;-66
2022/06/05 10:35:39;;;;;;;7.10;6.70;;;;;;;;;;5008590;28;20750;-66
2022/06/05 10:38:37;;;;;;;7.28;6.65;;;;;;;;;;5018896;28;20049;-67
2022/06/05 10:41:16;;;;;;;7.55;7.05;;;;;;;;;;5010592;28;20056;-67
2022/06/05 10:43:42;;;;;;;8.55;6.88;;;;;;;;;;5010201;28;20161;-66
2022/06/05 10:46:24;;;;;;;7.40;6.90;;;;;;;;;;5014431;28;20037;-65
2022/06/05 10:49:17;;;;;;;7.75;7.20;;;;;;;;;;5014593;28;20304;-65
2022/06/05 10:52:05;;;;;;;7.50;7.00;;;;;;;;;;5004934;28;20053;-66
2022/06/05 10:54:57;;;;;;;7.85;7.10;;;;;;;;;;5016116;28;20038;-67
2022/06/05 10:57:29;;;;;;;7.45;6.68;;;;;;;;;;5011777;28;20038;-66
2022/06/05 11:00:15;;;;;;;8.23;7.53;;;;;;;;;;5013774;28;20041;-67
2022/06/05 11:03:08;;;;;;;8.18;7.47;;;;;;;;;;5013941;28;20063;-67
2022/06/05 11:06:10;;;;;;;8.32;7.57;;;;;;;;;;5014667;28;20091;-68
2022/06/05 11:09:02;;;;;;;8.48;7.75;;;;;;;;;;5008143;28;20029;-69
2022/06/05 11:14:28;;;;;;;9.30;8.50;;;;;;;;;;5014717;28;20087;-69
2022/06/05 11:17:02;;;;;;;9.15;8.45;;;;;;;;;;5012565;28;20037;-71
2022/06/05 11:19:48;;;;;;;11.02;9.27;;;;;;;;;;5016953;28;20064;-69
2022/06/05 11:22:16;;;;;;;10.38;8.57;;;;;;;;;;5013306;28;20037;-71
2022/06/05 11:24:49;;;;;;;10.87;9.57;;;;;;;;;;5004412;28;20034;-70
2022/06/05 11:27:31;;;;;;;10.25;9.20;;;;;;;;;;5006879;28;20656;-69
2022/06/05 11:30:28;;;;;;;10.32;9.52;;;;;;;;;;5010047;28;20587;-68
2022/06/05 11:33:19;;;;;;;9.20;8.50;;;;;;;;;;5017275;28;20037;-69
2022/06/05 11:35:56;;;;;;;11.57;9.10;;;;;;;;;;5016184;28;20128;-71
2022/06/05 11:38:33;;;;;;;10.13;9.13;;;;;;;;;;5018059;28;20776;-67
2022/06/05 11:41:34;;;;;;;10.07;9.07;;;;;;;;;;5018524;28;20038;-70
2022/06/05 11:44:24;;;;;;;9.88;9.07;;;;;;;;;;4934465;29;20228;-69
2022/06/05 11:46:57;;;;;;;12.65;9.40;;;;;;;;;;4934407;28;20047;-70
2022/06/05 11:49:51;;;;;;;11.57;9.48;;;;;;;;;;4935632;29;20123;-70
2022/06/05 11:52:33;;;;;;;10.52;8.95;;;;;;;;;;4935043;29;20063;-70
2022/06/05 11:55:14;;;;;;;10.00;9.15;;;;;;;;;;4938486;29;20080;-69
2022/06/05 11:57:49;;;;;;;9.75;9.02;;;;;;;;;;4929670;29;20630;-66
2022/06/05 12:00:19;;;;;;;9.82;9.02;;;;;;;;;;4939486;28;20710;-67
2022/06/05 12:02:53;;;;;;;9.63;8.82;;;;;;;;;;4947754;29;20931;-67
2022/06/05 12:05:26;;;;;;;8.93;8.23;;;;;;;;;;4936585;29;20427;-69
2022/06/05 12:08:01;;;;;;;9.73;8.82;;;;;;;;;;4934230;29;20043;-70
2022/06/05 12:10:30;;;;;;;11.63;8.40;;;;;;;;;;4939798;28;20043;-70
2022/06/05 12:12:56;;;;;;;9.63;8.73;;;;;;;;;;4936775;28;20043;-69
2022/06/05 12:15:49;;;;;;;9.95;8.50;;;;;;;;;;4935911;29;20055;-70
2022/06/05 12:18:21;;;;;;;9.45;8.82;;;;;;;;;;4982283;28;20044;-67
2022/06/05 12:21:04;;;;;;;9.73;8.95;;;;;;;;;;5017574;28;20044;-67
2022/06/05 12:23:55;;;;;;;9.65;8.85;;;;;;;;;;5013928;28;20033;-67
2022/06/05 12:26:43;;;;;;;8.80;8.05;;;;;;;;;;5019527;28;20038;-70
2022/06/05 12:29:15;;;;;;;;;;;;;;;;;;5019083;28;20075;-70
2022/06/05 12:31:48;;;;;;;9.50;8.52;;;;;;;;;;5012812;28;19917;-68
2022/06/05 12:34:18;;;;;;;10.88;8.43;;;;;;;;;;5010265;28;20099;-67
2022/06/05 12:36:52;;;;;;;8.98;7.93;;;;;;;;;;5016845;28;20037;-68
2022/06/05 12:39:31;;;;;;;9.35;8.50;;;;;;;;;;5015525;28;20058;-68
2022/06/05 12:42:27;;;;;;;10.18;8.60;;;;;;;;;;5018741;28;20034;-69
2022/06/05 12:44:54;;;;;;;10.88;8.35;;;;;;;;;;5015625;28;20110;-69
2022/06/05 12:47:26;;;;;;;8.10;7.40;;;;;;;;;;5020034;28;20546;-69
2022/06/05 12:49:54;;;;;;;8.75;7.90;;;;;;;;;;5013850;28;20104;-69
2022/06/05 12:52:42;;;;;;;8.15;7.63;;;;;;;;;;5017418;28;20040;-68
2022/06/05 12:55:07;;;;;;;7.85;7.25;;;;;;;;;;5014895;28;20048;-69
2022/06/05 12:57:52;;;;;;;8.00;7.25;;;;;;;;;;5013885;28;20034;-68
2022/06/05 13:00:18;;;;;;;7.90;7.10;;;;;;;;;;5014476;28;20049;-69
2022/06/05 13:03:01;;;;;;;7.72;7.10;;;;;;;;;;5016664;28;20038;-68
2022/06/05 13:05:38;;;;;;;8.02;7.38;;;;;;;;;;5009494;28;20054;-69
2022/06/05 13:08:10;;;;;;;7.40;6.87;;;;;;;;;;5008602;28;20041;-69
2022/06/05 13:10:44;;;;;;;8.00;7.22;;;;;;;;;;5002271;28;20034;-68
2022/06/05 13:13:13;;;;;;;8.75;7.45;;;;;;;;;;5006273;28;20047;-68
2022/06/05 13:15:44;;;;;;;8.50;7.60;;;;;;;;;;5007126;28;20522;-69
2022/06/05 13:18:13;;;;;;;8.93;8.02;;;;;;;;;;4992128;28;20606;-69
2022/06/05 13:21:10;;;;;;;8.43;7.55;;;;;;;;;;4998528;28;20026;-69
2022/06/05 13:23:46;;;;;;;8.35;7.65;;;;;;;;;;5009387;28;20104;-68
2022/06/05 13:26:25;;;;;;;8.07;7.38;;;;;;;;;;5008195;28;20116;-68
2022/06/05 13:28:58;;;;;;;7.72;7.03;;;;;;;;;;5008449;28;20049;-69
2022/06/05 13:31:47;;;;;;;9.35;7.50;;;;;;;;;;5011491;28;20038;-67
2022/06/05 13:34:27;;;;;;;;;;;;;;;;;;5008788;28;20037;-68
2022/06/05 13:37:11;;;;;;;8.35;7.55;;;;;;;;;;5007962;28;19959;-67
2022/06/05 13:39:48;;;;;;;8.32;7.45;;;;;;;;;;5008609;28;20040;-66
2022/06/05 13:42:20;;;;;;;7.82;7.07;;;;;;;;;;5004150;28;20053;-66
2022/06/05 13:44:59;;;;;;;11.57;7.25;;;;;;;;;;5015144;28;20551;-67
2022/06/05 13:47:34;;;;;;;7.85;7.05;;;;;;;;;;5012003;28;20608;-68
2022/06/05 13:50:21;;;;;;;7.90;7.10;;;;;;;;;;5013362;28;20048;-68
2022/06/05 13:52:50;;;;;;;8.23;7.43;;;;;;;;;;5008655;28;20045;-66
2022/06/05 13:55:27;;;;;;;9.68;6.97;;;;;;;;;;5010373;28;20040;-67
2022/06/05 13:58:10;;;;;;;7.30;6.40;;;;;;;;;;5011923;28;20049;-65
2022/06/05 14:00:53;;;;;;;7.15;6.45;;;;;;;;;;5010447;28;20033;-68
2022/06/05 14:03:53;;;;;;;9.45;6.30;;;;;;;;;;5014189;28;21087;-68
2022/06/05 14:06:53;;;;;;;8.55;6.35;;;;;;;;;;4969717;28;20105;-66
2022/06/05 14:10:04;;;;;;;9.88;6.28;;;;;;;;;;4969330;28;20046;-67
2022/06/05 14:12:33;;;;;;;6.88;6.15;;;;;;;;;;4914430;29;20059;-68
2022/06/05 14:15:12;;;;;;;6.68;6.18;;;;;;;;;;4913152;29;20147;-68
2022/06/05 14:17:43;;;;;;;6.88;6.38;;;;;;;;;;4911396;29;20127;-67
2022/06/05 14:20:18;;;;;;;8.52;6.22;;;;;;;;;;4909973;29;20139;-67
2022/06/05 14:22:56;;;;;;;6.63;6.13;;;;;;;;;;4908855;29;20048;-67
2022/06/05 14:25:35;;;;;;;6.70;6.13;;;;;;;;;;4906079;29;20051;-67
2022/06/05 14:28:02;;;;;;;;;;;;;;;;;;4911655;29;20055;-67
2022/06/05 14:30:33;;;;;;;7.38;6.55;;;;;;;;;;4915546;29;20017;-67
2022/06/05 14:33:07;;;;;;;11.23;7.13;;;;;;;;;;4911179;29;20040;-68
2022/06/05 14:35:53;;;;;;;7.03;6.43;;;;;;;;;;4907192;29;20055;-67
2022/06/05 14:38:40;;;;;;;6.55;6.05;;;;;;;;;;4910849;29;20051;-68
2022/06/05 14:41:14;;;;;;;6.50;6.00;;;;;;;;;;4920512;28;20121;-68
2022/06/05 14:44:04;;;;;;;7.30;6.57;;;;;;;;;;4944408;28;20034;-68
2022/06/05 14:46:33;;;;;;;7.85;7.05;;;;;;;;;;4965664;28;20043;-68
2022/06/05 14:49:20;;;;;;;7.30;6.65;;;;;;;;;;5010179;28;20073;-69
2022/06/05 14:51:54;;;;;;;7.10;6.50;;;;;;;;;;5003107;28;20053;-69
2022/06/05 14:57:54;;;;;;;7.15;6.50;;;;;;;;;;5003921;28;20489;-68
2022/06/05 15:00:25;;;;;;;6.85;6.30;;;;;;;;;;5009617;28;20104;-68
2022/06/05 15:03:04;;;;;;;8.10;6.75;;;;;;;;;;5002921;28;20034;-69
2022/06/05 15:05:55;;;;;;;8.70;7.80;;;;;;;;;;5002550;28;20050;-69
2022/06/05 15:08:43;;;;;;;7.32;6.55;;;;;;;;;;4996120;28;20049;-68
2022/06/05 15:11:35;;;;;;;7.25;6.53;;;;;;;;;;5003266;28;20635;-68
2022/06/05 15:14:23;;;;;;;8.57;6.80;;;;;;;;;;5006521;28;20046;-67
2022/06/05 15:17:00;;;;;;;8.65;6.22;;;;;;;;;;5005202;28;20034;-67
2022/06/05 15:19:31;;;;;;;7.38;6.68;;;;;;;;;;5010615;28;20037;-68
2022/06/05 15:22:20;;;;;;;8.75;6.63;;;;;;;;;;5013808;28;20029;-68
2022/06/05 15:25:02;;;;;;;6.97;6.35;;;;;;;;;;5006409;28;20030;-67
2022/06/05 15:27:40;;;;;;;7.43;6.75;;;;;;;;;;5010256;28;20085;-68
2022/06/05 15:30:17;;;;;;;9.57;6.90;;;;;;;;;;5001580;28;20114;-69